TimeCST,TemperatureF,Dew PointF,Humidity,Sea Level PressureIn,VisibilityMPH,Wind Direction,Wind SpeedMPH,Gust SpeedMPH,PrecipitationIn,Events,Conditions,WindDirDegrees,DateUTC
12:26 AM,32.0,30.2,93,29.69,1.0,NNE,19.6,-,0.03,Snow,Light Snow,20,2013-02-26 06:26:00
12:43 AM,32.0,30.2,93,29.67,0.8,North,21.9,-,0.03,Snow,Light Snow,10,2013-02-26 06:43:00
12:53 AM,32.0,30.0,92,29.69,1.0,NNE,19.6,-,0.04,Snow,Light Snow,20,2013-02-26 06:53:00
1:49 AM,32.0,30.2,93,29.65,1.5,NNE,17.3,-,0.02,Snow,Light Snow,20,2013-02-26 07:49:00
1:53 AM,32.0,30.0,92,29.67,1.5,NNE,21.9,26.5,0.02,Snow,Light Snow,20,2013-02-26 07:53:00
2:29 AM,32.0,30.2,93,29.63,1.0,NNE,21.9,27.6,0.01,Snow,Light Snow,20,2013-02-26 08:29:00
2:36 AM,32.0,30.2,93,29.63,1.0,North,20.7,29.9,0.02,Snow,Light Snow,10,2013-02-26 08:36:00
2:51 AM,32.0,30.2,93,29.62,0.8,North,21.9,-,0.03,Snow,Light Snow,360,2013-02-26 08:51:00
2:53 AM,32.0,30.0,92,29.64,0.8,North,23.0,-,0.03,Snow,Light Snow,360,2013-02-26 08:53:00
3:02 AM,32.0,30.2,93,29.61,1.0,North,20.7,29.9,0.01,Snow,Light Snow,360,2013-02-26 09:02:00
3:49 AM,32.0,30.2,93,29.61,0.8,North,25.3,31.1,0.05,Snow,Light Snow,10,2013-02-26 09:49:00
3:53 AM,32.0,30.0,92,29.63,0.8,North,19.6,32.2,0.05,Snow,Light Snow,10,2013-02-26 09:53:00
4:53 AM,32.0,30.9,96,29.61,0.8,North,24.2,34.5,0.05,Snow,Light Snow,360,2013-02-26 10:53:00
5:27 AM,32.0,30.2,93,29.58,1.0,North,23.0,33.4,0.03,Snow,Light Snow,360,2013-02-26 11:27:00
5:34 AM,30.2,30.2,100,29.59,0.8,North,23.0,29.9,0.03,Snow,Light Snow,360,2013-02-26 11:34:00
5:53 AM,32.0,30.9,96,29.61,0.8,North,23.0,32.2,0.05,Snow,Light Snow,350,2013-02-26 11:53:00
6:53 AM,30.9,30.9,100,29.62,0.5,North,23.0,35.7,0.04,Fog-Snow,Snow,360,2013-02-26 12:53:00
7:20 AM,30.2,30.2,100,29.59,0.2,North,27.6,32.2,0.03,Fog-Snow,Snow,360,2013-02-26 13:20:00
7:53 AM,30.9,30.0,96,29.61,0.2,North,33.4,40.3,0.06,Fog-Snow,Snow,360,2013-02-26 13:53:00
8:23 AM,30.2,30.2,100,29.58,0.5,North,28.8,35.7,0.01,Fog-Snow,Snow,350,2013-02-26 14:23:00
8:53 AM,30.9,30.9,100,29.60,0.5,North,26.5,35.7,0.02,Fog-Snow,Snow,360,2013-02-26 14:53:00
9:53 AM,32.0,32.0,100,29.62,0.5,North,25.3,35.7,0.01,Fog-Snow,Light Snow,360,2013-02-26 15:53:00
10:02 AM,32.0,32.0,100,29.60,1.0,North,23.0,-,0.00,Fog-Snow,Light Snow,360,2013-02-26 16:02:00
10:21 AM,32.0,32.0,100,29.60,3.0,North,24.2,32.2,0.00,Fog-Snow,Blowing Snow,360,2013-02-26 16:21:00
10:29 AM,32.0,32.0,100,29.60,3.0,North,21.9,32.2,0.00,Snow,Light Snow,360,2013-02-26 16:29:00
10:53 AM,33.1,33.1,100,29.62,5.0,North,24.2,31.1,0.00,Snow,Light Snow,360,2013-02-26 16:53:00
11:53 AM,33.1,28.9,85,29.65,4.0,North,20.7,28.8,0.00,Snow,Light Snow,360,2013-02-26 17:53:00
12:20 PM,33.8,28.4,81,29.64,2.5,North,19.6,-,0.00,Snow,Light Snow,350,2013-02-26 18:20:00
12:36 PM,33.8,28.4,81,29.64,4.0,North,17.3,-,0.00,Snow,Light Snow,350,2013-02-26 18:36:00
12:53 PM,33.1,28.9,85,29.66,5.0,NNW,15.0,23.0,0.00,Snow,Light Snow,340,2013-02-26 18:53:00
1:53 PM,33.1,28.9,85,29.67,1.5,North,17.3,-,0.00,Snow,Light Snow,350,2013-02-26 19:53:00
2:01 PM,33.8,28.4,81,29.64,1.5,North,17.3,-,0.01,Snow,Light Snow,360,2013-02-26 20:01:00
2:10 PM,33.8,28.4,81,29.64,1.5,North,18.4,-,0.01,Snow,Light Snow,360,2013-02-26 20:10:00
2:44 PM,33.8,33.8,100,29.64,2.5,North,17.3,-,0.01,Snow,Light Snow,350,2013-02-26 20:44:00
2:53 PM,33.1,33.1,100,29.67,2.5,North,19.6,25.3,0.01,Snow,Light Snow,350,2013-02-26 20:53:00
3:20 PM,33.8,32.0,93,29.66,3.0,North,19.6,-,0.00,,Overcast,350,2013-02-26 21:20:00
3:53 PM,33.1,28.9,85,29.69,3.0,North,18.4,-,0.00,,Overcast,360,2013-02-26 21:53:00
4:53 PM,33.1,28.0,82,29.73,3.0,North,16.1,24.2,N/A,,Haze,350,2013-02-26 22:53:00
5:26 PM,32.0,26.6,80,29.71,3.0,North,18.4,-,0.00,Snow,Light Snow,350,2013-02-26 23:26:00
5:53 PM,32.0,27.0,82,29.75,3.0,North,17.3,-,0.00,Snow,Light Snow,350,2013-02-26 23:53:00
5:58 PM,32.0,26.6,80,29.72,2.5,North,13.8,-,0.00,Snow,Light Snow,350,2013-02-26 23:58:00
6:12 PM,32.0,26.6,80,29.73,1.5,North,17.3,-,0.01,Snow,Light Snow,360,2013-02-27 00:12:00
6:53 PM,32.0,27.0,82,29.77,1.5,North,12.7,-,0.01,Snow,Light Snow,360,2013-02-27 00:53:00
7:09 PM,32.0,26.6,80,29.75,6.0,North,13.8,-,0.00,Snow,Light Snow,350,2013-02-27 01:09:00
7:53 PM,32.0,27.0,82,29.80,6.0,NNW,9.2,-,0.00,,Haze,340,2013-02-27 01:53:00
8:53 PM,32.0,27.0,82,29.83,5.0,NW,11.5,-,0.00,Snow,Light Snow,320,2013-02-27 02:53:00
9:19 PM,30.2,26.6,86,29.82,4.0,NW,10.4,-,0.00,Snow,Light Snow,320,2013-02-27 03:19:00
9:53 PM,30.9,27.0,85,29.85,3.0,WNW,8.1,-,0.00,Snow,Light Snow,300,2013-02-27 03:53:00
10:13 PM,30.2,26.6,86,29.83,2.0,NW,10.4,-,0.00,Snow,Light Snow,310,2013-02-27 04:13:00
10:19 PM,30.2,26.6,86,29.83,1.8,NW,9.2,-,0.00,Snow,Light Snow,310,2013-02-27 04:19:00
10:30 PM,30.2,26.6,86,29.83,1.8,NW,8.1,-,0.01,Snow,Light Snow,310,2013-02-27 04:30:00
10:53 PM,30.9,27.0,85,29.86,1.8,WNW,10.4,-,0.01,Snow,Light Snow,300,2013-02-27 04:53:00
11:53 PM,30.0,27.0,88,29.86,1.8,NW,9.2,-,0.01,Snow,Light Snow,310,2013-02-27 05:53:00